sensor_id;sensor_type;location;lat;lon;timestamp;P1;durP1;ratioP1;P2;durP2;ratioP2
20166;SDS011;10243;49.118;8.508;2022-08-19T00:01:45;29.88;;;21.08;;
20166;SDS011;10243;49.118;8.508;2022-08-19T00:04:49;26.48;;;20.92;;
20166;SDS011;10243;49.118;8.508;2022-08-19T00:07:52;28.95;;;21.48;;
20166;SDS011;10243;49.118;8.508;2022-08-19T00:10:55;31.88;;;21.50;;
20166;SDS011;10243;49.118;8.508;2022-08-19T00:13:57;30.27;;;21.80;;
20166;SDS011;10243;49.118;8.508;2022-08-19T00:16:59;28.77;;;22.45;;
20166;SDS011;10243;49.118;8.508;2022-08-19T00:20:03;31.92;;;21.77;;
20166;SDS011;10243;49.118;8.508;2022-08-19T00:23:06;31.58;;;21.15;;
20166;SDS011;10243;49.118;8.508;2022-08-19T00:26:09;28.98;;;22.25;;
20166;SDS011;10243;49.118;8.508;2022-08-19T00:29:13;28.77;;;22.50;;
20166;SDS011;10243;49.118;8.508;2022-08-19T00:32:16;30.13;;;22.25;;
20166;SDS011;10243;49.118;8.508;2022-08-19T00:35:18;31.23;;;21.42;;
20166;SDS011;10243;49.118;8.508;2022-08-19T00:38:20;27.27;;;21.73;;
20166;SDS011;10243;49.118;8.508;2022-08-19T00:41:24;32.72;;;22.25;;
20166;SDS011;10243;49.118;8.508;2022-08-19T00:44:27;33.75;;;22.50;;
20166;SDS011;10243;49.118;8.508;2022-08-19T00:47:30;29.52;;;21.55;;
20166;SDS011;10243;49.118;8.508;2022-08-19T00:50:32;35.10;;;22.60;;
20166;SDS011;10243;49.118;8.508;2022-08-19T00:53:35;29.63;;;22.23;;
20166;SDS011;10243;49.118;8.508;2022-08-19T00:56:39;34.28;;;22.23;;
20166;SDS011;10243;49.118;8.508;2022-08-19T00:59:42;31.00;;;23.60;;
20166;SDS011;10243;49.118;8.508;2022-08-19T01:02:48;29.15;;;22.08;;
20166;SDS011;10243;49.118;8.508;2022-08-19T01:05:51;29.45;;;22.63;;
20166;SDS011;10243;49.118;8.508;2022-08-19T01:08:54;29.45;;;23.05;;
20166;SDS011;10243;49.118;8.508;2022-08-19T01:11:58;30.60;;;22.30;;
20166;SDS011;10243;49.118;8.508;2022-08-19T01:14:59;28.10;;;22.00;;
20166;SDS011;10243;49.118;8.508;2022-08-19T01:18:04;32.45;;;23.05;;
20166;SDS011;10243;49.118;8.508;2022-08-19T01:21:10;34.28;;;21.92;;
20166;SDS011;10243;49.118;8.508;2022-08-19T01:24:19;32.40;;;23.02;;
20166;SDS011;10243;49.118;8.508;2022-08-19T01:27:21;29.35;;;22.50;;
20166;SDS011;10243;49.118;8.508;2022-08-19T01:30:23;39.03;;;23.23;;
20166;SDS011;10243;49.118;8.508;2022-08-19T01:33:27;32.20;;;22.67;;
20166;SDS011;10243;49.118;8.508;2022-08-19T01:36:31;28.17;;;22.90;;
20166;SDS011;10243;49.118;8.508;2022-08-19T01:39:37;28.63;;;22.33;;
20166;SDS011;10243;49.118;8.508;2022-08-19T01:42:39;30.30;;;22.90;;
20166;SDS011;10243;49.118;8.508;2022-08-19T01:45:42;31.08;;;23.38;;
20166;SDS011;10243;49.118;8.508;2022-08-19T01:48:44;31.15;;;22.33;;
20166;SDS011;10243;49.118;8.508;2022-08-19T01:51:47;33.50;;;22.63;;
20166;SDS011;10243;49.118;8.508;2022-08-19T01:54:50;29.95;;;22.55;;
20166;SDS011;10243;49.118;8.508;2022-08-19T01:57:53;30.73;;;23.02;;
20166;SDS011;10243;49.118;8.508;2022-08-19T02:00:59;33.15;;;22.88;;
20166;SDS011;10243;49.118;8.508;2022-08-19T02:04:01;29.88;;;22.55;;
20166;SDS011;10243;49.118;8.508;2022-08-19T02:07:03;33.10;;;23.38;;
20166;SDS011;10243;49.118;8.508;2022-08-19T02:10:09;38.60;;;23.65;;
20166;SDS011;10243;49.118;8.508;2022-08-19T02:13:13;34.45;;;23.33;;
20166;SDS011;10243;49.118;8.508;2022-08-19T02:16:15;29.90;;;22.92;;
20166;SDS011;10243;49.118;8.508;2022-08-19T02:19:18;34.17;;;24.05;;
20166;SDS011;10243;49.118;8.508;2022-08-19T02:22:20;30.63;;;22.23;;
20166;SDS011;10243;49.118;8.508;2022-08-19T02:25:23;27.58;;;22.27;;
20166;SDS011;10243;49.118;8.508;2022-08-19T02:28:25;30.05;;;23.13;;
20166;SDS011;10243;49.118;8.508;2022-08-19T02:31:27;33.90;;;23.77;;
20166;SDS011;10243;49.118;8.508;2022-08-19T02:34:29;30.52;;;23.30;;
20166;SDS011;10243;49.118;8.508;2022-08-19T02:37:31;30.92;;;22.60;;
20166;SDS011;10243;49.118;8.508;2022-08-19T02:40:52;36.28;;;23.08;;
20166;SDS011;10243;49.118;8.508;2022-08-19T02:43:56;35.15;;;24.77;;
20166;SDS011;10243;49.118;8.508;2022-08-19T02:46:59;41.90;;;26.38;;
20166;SDS011;10243;49.118;8.508;2022-08-19T02:50:01;33.72;;;23.90;;
20166;SDS011;10243;49.118;8.508;2022-08-19T02:53:04;30.02;;;24.05;;
20166;SDS011;10243;49.118;8.508;2022-08-19T02:56:08;35.20;;;25.42;;
20166;SDS011;10243;49.118;8.508;2022-08-19T02:59:10;31.63;;;24.73;;
20166;SDS011;10243;49.118;8.508;2022-08-19T03:02:12;34.30;;;24.52;;
20166;SDS011;10243;49.118;8.508;2022-08-19T03:05:15;34.60;;;24.98;;
20166;SDS011;10243;49.118;8.508;2022-08-19T03:08:17;31.92;;;24.30;;
20166;SDS011;10243;49.118;8.508;2022-08-19T03:11:22;32.05;;;24.30;;
20166;SDS011;10243;49.118;8.508;2022-08-19T03:14:25;34.28;;;24.40;;
20166;SDS011;10243;49.118;8.508;2022-08-19T03:17:27;28.58;;;22.88;;
20166;SDS011;10243;49.118;8.508;2022-08-19T03:20:29;30.85;;;24.35;;
20166;SDS011;10243;49.118;8.508;2022-08-19T03:23:31;31.83;;;24.45;;
20166;SDS011;10243;49.118;8.508;2022-08-19T03:26:39;32.78;;;25.02;;
20166;SDS011;10243;49.118;8.508;2022-08-19T03:29:42;38.53;;;25.27;;
20166;SDS011;10243;49.118;8.508;2022-08-19T03:32:44;32.83;;;24.58;;
20166;SDS011;10243;49.118;8.508;2022-08-19T03:35:47;37.30;;;24.50;;
20166;SDS011;10243;49.118;8.508;2022-08-19T03:39:00;31.92;;;25.05;;
20166;SDS011;10243;49.118;8.508;2022-08-19T03:42:04;33.88;;;25.20;;
20166;SDS011;10243;49.118;8.508;2022-08-19T03:45:06;35.65;;;24.85;;
20166;SDS011;10243;49.118;8.508;2022-08-19T03:48:10;35.80;;;24.40;;
20166;SDS011;10243;49.118;8.508;2022-08-19T03:51:15;35.70;;;24.48;;
20166;SDS011;10243;49.118;8.508;2022-08-19T03:54:19;31.42;;;24.92;;
20166;SDS011;10243;49.118;8.508;2022-08-19T03:57:24;38.25;;;25.85;;
20166;SDS011;10243;49.118;8.508;2022-08-19T04:00:26;39.97;;;24.67;;
20166;SDS011;10243;49.118;8.508;2022-08-19T04:03:28;34.75;;;26.10;;
20166;SDS011;10243;49.118;8.508;2022-08-19T04:06:30;36.53;;;25.10;;
20166;SDS011;10243;49.118;8.508;2022-08-19T04:09:34;36.40;;;24.83;;
20166;SDS011;10243;49.118;8.508;2022-08-19T04:12:38;31.77;;;25.90;;
20166;SDS011;10243;49.118;8.508;2022-08-19T04:15:40;33.00;;;25.33;;
20166;SDS011;10243;49.118;8.508;2022-08-19T04:18:42;32.38;;;25.10;;
20166;SDS011;10243;49.118;8.508;2022-08-19T04:21:45;32.45;;;25.98;;
20166;SDS011;10243;49.118;8.508;2022-08-19T04:24:48;34.17;;;24.77;;
20166;SDS011;10243;49.118;8.508;2022-08-19T04:27:51;34.17;;;25.35;;
20166;SDS011;10243;49.118;8.508;2022-08-19T04:30:53;33.05;;;26.02;;
20166;SDS011;10243;49.118;8.508;2022-08-19T04:33:57;40.78;;;26.15;;
20166;SDS011;10243;49.118;8.508;2022-08-19T04:37:01;41.40;;;25.30;;
20166;SDS011;10243;49.118;8.508;2022-08-19T04:40:08;42.40;;;25.90;;
20166;SDS011;10243;49.118;8.508;2022-08-19T04:43:29;37.92;;;27.60;;
20166;SDS011;10243;49.118;8.508;2022-08-19T04:46:31;44.35;;;29.83;;
20166;SDS011;10243;49.118;8.508;2022-08-19T04:49:34;40.10;;;25.98;;
20166;SDS011;10243;49.118;8.508;2022-08-19T04:52:36;34.80;;;25.50;;
20166;SDS011;10243;49.118;8.508;2022-08-19T04:55:42;38.10;;;24.98;;
20166;SDS011;10243;49.118;8.508;2022-08-19T04:58:45;35.03;;;26.33;;
20166;SDS011;10243;49.118;8.508;2022-08-19T05:01:48;34.22;;;25.90;;
20166;SDS011;10243;49.118;8.508;2022-08-19T05:04:50;39.75;;;25.55;;
20166;SDS011;10243;49.118;8.508;2022-08-19T05:07:52;33.42;;;25.63;;
20166;SDS011;10243;49.118;8.508;2022-08-19T05:10:56;35.28;;;25.25;;
20166;SDS011;10243;49.118;8.508;2022-08-19T05:13:59;34.58;;;26.90;;
20166;SDS011;10243;49.118;8.508;2022-08-19T05:17:01;34.47;;;26.33;;
20166;SDS011;10243;49.118;8.508;2022-08-19T05:20:04;34.00;;;26.08;;
20166;SDS011;10243;49.118;8.508;2022-08-19T05:23:24;35.45;;;25.92;;
20166;SDS011;10243;49.118;8.508;2022-08-19T05:26:26;32.25;;;25.58;;
20166;SDS011;10243;49.118;8.508;2022-08-19T05:29:30;39.75;;;26.33;;
20166;SDS011;10243;49.118;8.508;2022-08-19T05:32:32;33.55;;;26.23;;
20166;SDS011;10243;49.118;8.508;2022-08-19T05:35:35;35.88;;;24.85;;
20166;SDS011;10243;49.118;8.508;2022-08-19T05:38:38;35.10;;;24.38;;
20166;SDS011;10243;49.118;8.508;2022-08-19T05:41:40;35.17;;;24.90;;
20166;SDS011;10243;49.118;8.508;2022-08-19T05:44:44;34.05;;;25.55;;
20166;SDS011;10243;49.118;8.508;2022-08-19T05:47:47;32.15;;;24.95;;
20166;SDS011;10243;49.118;8.508;2022-08-19T05:50:49;32.10;;;25.85;;
20166;SDS011;10243;49.118;8.508;2022-08-19T05:53:51;35.60;;;25.38;;
20166;SDS011;10243;49.118;8.508;2022-08-19T05:56:53;29.83;;;25.10;;
20166;SDS011;10243;49.118;8.508;2022-08-19T05:59:56;32.63;;;26.20;;
20166;SDS011;10243;49.118;8.508;2022-08-19T06:03:00;33.35;;;23.60;;
20166;SDS011;10243;49.118;8.508;2022-08-19T06:06:03;31.13;;;24.10;;
20166;SDS011;10243;49.118;8.508;2022-08-19T06:09:06;36.05;;;24.50;;
20166;SDS011;10243;49.118;8.508;2022-08-19T06:12:10;33.38;;;23.73;;
20166;SDS011;10243;49.118;8.508;2022-08-19T06:15:13;30.58;;;23.80;;
20166;SDS011;10243;49.118;8.508;2022-08-19T06:18:15;34.97;;;25.17;;
20166;SDS011;10243;49.118;8.508;2022-08-19T06:21:18;34.67;;;24.48;;
20166;SDS011;10243;49.118;8.508;2022-08-19T06:24:22;32.25;;;23.83;;
20166;SDS011;10243;49.118;8.508;2022-08-19T06:27:26;38.67;;;23.60;;
20166;SDS011;10243;49.118;8.508;2022-08-19T06:30:30;42.63;;;23.55;;
20166;SDS011;10243;49.118;8.508;2022-08-19T06:33:32;36.92;;;23.48;;
20166;SDS011;10243;49.118;8.508;2022-08-19T06:36:36;36.42;;;23.25;;
20166;SDS011;10243;49.118;8.508;2022-08-19T06:39:40;50.95;;;23.35;;
20166;SDS011;10243;49.118;8.508;2022-08-19T06:42:43;30.77;;;22.98;;
20166;SDS011;10243;49.118;8.508;2022-08-19T06:45:47;31.77;;;23.52;;
20166;SDS011;10243;49.118;8.508;2022-08-19T06:48:51;27.80;;;22.63;;
20166;SDS011;10243;49.118;8.508;2022-08-19T06:51:54;30.55;;;22.70;;
20166;SDS011;10243;49.118;8.508;2022-08-19T06:54:57;25.35;;;21.80;;
20166;SDS011;10243;49.118;8.508;2022-08-19T06:58:01;30.63;;;22.70;;
20166;SDS011;10243;49.118;8.508;2022-08-19T07:01:05;27.48;;;22.08;;
20166;SDS011;10243;49.118;8.508;2022-08-19T07:04:08;28.55;;;22.25;;
20166;SDS011;10243;49.118;8.508;2022-08-19T07:07:11;123.18;;;24.55;;
20166;SDS011;10243;49.118;8.508;2022-08-19T07:10:15;39.85;;;21.70;;
20166;SDS011;10243;49.118;8.508;2022-08-19T07:13:17;34.65;;;20.95;;
20166;SDS011;10243;49.118;8.508;2022-08-19T07:16:20;31.52;;;19.35;;
20166;SDS011;10243;49.118;8.508;2022-08-19T07:19:23;28.00;;;19.02;;
20166;SDS011;10243;49.118;8.508;2022-08-19T07:22:27;19.52;;;17.55;;
20166;SDS011;10243;49.118;8.508;2022-08-19T07:25:29;20.80;;;16.92;;
20166;SDS011;10243;49.118;8.508;2022-08-19T07:28:31;23.33;;;17.00;;
20166;SDS011;10243;49.118;8.508;2022-08-19T07:31:34;19.23;;;17.23;;
20166;SDS011;10243;49.118;8.508;2022-08-19T07:34:37;21.75;;;16.20;;
20166;SDS011;10243;49.118;8.508;2022-08-19T07:37:39;23.85;;;15.48;;
20166;SDS011;10243;49.118;8.508;2022-08-19T07:40:44;22.25;;;14.77;;
20166;SDS011;10243;49.118;8.508;2022-08-19T07:43:47;22.63;;;16.95;;
20166;SDS011;10243;49.118;8.508;2022-08-19T07:46:51;17.55;;;14.48;;
20166;SDS011;10243;49.118;8.508;2022-08-19T07:49:55;18.25;;;15.75;;
20166;SDS011;10243;49.118;8.508;2022-08-19T07:52:57;17.95;;;14.40;;
20166;SDS011;10243;49.118;8.508;2022-08-19T07:55:59;16.42;;;14.73;;
20166;SDS011;10243;49.118;8.508;2022-08-19T07:59:04;20.45;;;15.60;;
20166;SDS011;10243;49.118;8.508;2022-08-19T08:02:07;20.40;;;16.33;;
20166;SDS011;10243;49.118;8.508;2022-08-19T08:05:10;20.35;;;14.63;;
20166;SDS011;10243;49.118;8.508;2022-08-19T08:08:31;15.57;;;13.52;;
20166;SDS011;10243;49.118;8.508;2022-08-19T08:11:50;19.67;;;14.02;;
20166;SDS011;10243;49.118;8.508;2022-08-19T08:14:54;16.25;;;13.30;;
20166;SDS011;10243;49.118;8.508;2022-08-19T08:17:59;20.27;;;13.38;;
20166;SDS011;10243;49.118;8.508;2022-08-19T08:21:01;21.15;;;14.98;;
20166;SDS011;10243;49.118;8.508;2022-08-19T08:24:03;15.35;;;13.52;;
20166;SDS011;10243;49.118;8.508;2022-08-19T08:27:05;16.70;;;13.73;;
20166;SDS011;10243;49.118;8.508;2022-08-19T08:30:07;15.40;;;12.75;;
20166;SDS011;10243;49.118;8.508;2022-08-19T08:33:11;16.13;;;13.07;;
20166;SDS011;10243;49.118;8.508;2022-08-19T08:36:13;17.48;;;13.23;;
20166;SDS011;10243;49.118;8.508;2022-08-19T08:39:16;17.17;;;12.75;;
20166;SDS011;10243;49.118;8.508;2022-08-19T08:42:21;18.02;;;12.82;;
20166;SDS011;10243;49.118;8.508;2022-08-19T08:45:28;14.00;;;12.60;;
20166;SDS011;10243;49.118;8.508;2022-08-19T08:48:35;13.75;;;12.18;;
20166;SDS011;10243;49.118;8.508;2022-08-19T08:51:40;16.02;;;12.30;;
20166;SDS011;10243;49.118;8.508;2022-08-19T08:54:46;16.90;;;12.23;;
20166;SDS011;10243;49.118;8.508;2022-08-19T08:57:52;11.68;;;10.60;;
20166;SDS011;10243;49.118;8.508;2022-08-19T09:00:56;17.20;;;12.60;;
20166;SDS011;10243;49.118;8.508;2022-08-19T09:04:00;14.52;;;11.68;;
20166;SDS011;10243;49.118;8.508;2022-08-19T09:07:18;13.98;;;12.57;;
20166;SDS011;10243;49.118;8.508;2022-08-19T09:10:29;14.55;;;12.55;;
20166;SDS011;10243;49.118;8.508;2022-08-19T09:13:38;12.85;;;11.35;;
20166;SDS011;10243;49.118;8.508;2022-08-19T09:16:50;15.05;;;11.43;;
20166;SDS011;10243;49.118;8.508;2022-08-19T09:19:54;14.95;;;11.48;;
20166;SDS011;10243;49.118;8.508;2022-08-19T09:23:01;14.48;;;11.27;;
20166;SDS011;10243;49.118;8.508;2022-08-19T09:26:06;12.45;;;11.02;;
20166;SDS011;10243;49.118;8.508;2022-08-19T09:29:10;12.70;;;9.25;;
20166;SDS011;10243;49.118;8.508;2022-08-19T09:32:12;11.65;;;10.57;;
20166;SDS011;10243;49.118;8.508;2022-08-19T09:35:15;11.18;;;10.07;;
20166;SDS011;10243;49.118;8.508;2022-08-19T09:38:18;11.10;;;10.10;;
20166;SDS011;10243;49.118;8.508;2022-08-19T09:41:24;12.77;;;9.32;;
20166;SDS011;10243;49.118;8.508;2022-08-19T09:44:27;9.50;;;8.70;;
20166;SDS011;10243;49.118;8.508;2022-08-19T09:47:29;9.93;;;7.03;;
20166;SDS011;10243;49.118;8.508;2022-08-19T09:50:33;11.00;;;10.00;;
20166;SDS011;10243;49.118;8.508;2022-08-19T09:53:38;11.68;;;10.05;;
20166;SDS011;10243;49.118;8.508;2022-08-19T09:56:40;14.18;;;9.05;;
20166;SDS011;10243;49.118;8.508;2022-08-19T09:59:43;8.98;;;8.15;;
20166;SDS011;10243;49.118;8.508;2022-08-19T10:02:45;8.02;;;7.32;;
20166;SDS011;10243;49.118;8.508;2022-08-19T10:05:48;8.68;;;7.75;;
20166;SDS011;10243;49.118;8.508;2022-08-19T10:08:51;13.10;;;9.45;;
20166;SDS011;10243;49.118;8.508;2022-08-19T10:11:53;61.05;;;12.57;;
20166;SDS011;10243;49.118;8.508;2022-08-19T10:14:55;10.45;;;9.35;;
20166;SDS011;10243;49.118;8.508;2022-08-19T10:17:57;20.42;;;8.82;;
20166;SDS011;10243;49.118;8.508;2022-08-19T10:21:04;11.30;;;9.07;;
20166;SDS011;10243;49.118;8.508;2022-08-19T10:24:08;8.10;;;7.45;;
20166;SDS011;10243;49.118;8.508;2022-08-19T10:27:10;13.65;;;9.60;;
20166;SDS011;10243;49.118;8.508;2022-08-19T10:30:13;11.95;;;9.68;;
20166;SDS011;10243;49.118;8.508;2022-08-19T10:33:15;10.02;;;9.13;;
20166;SDS011;10243;49.118;8.508;2022-08-19T10:36:19;9.20;;;8.48;;
20166;SDS011;10243;49.118;8.508;2022-08-19T10:39:23;9.10;;;8.40;;
20166;SDS011;10243;49.118;8.508;2022-08-19T10:42:25;8.82;;;8.00;;
20166;SDS011;10243;49.118;8.508;2022-08-19T10:45:27;8.32;;;7.60;;
20166;SDS011;10243;49.118;8.508;2022-08-19T10:48:28;11.07;;;9.30;;
20166;SDS011;10243;49.118;8.508;2022-08-19T10:51:32;11.57;;;8.00;;
20166;SDS011;10243;49.118;8.508;2022-08-19T10:54:51;10.27;;;7.70;;
20166;SDS011;10243;49.118;8.508;2022-08-19T10:58:11;10.75;;;9.55;;
20166;SDS011;10243;49.118;8.508;2022-08-19T11:01:14;10.77;;;9.07;;
20166;SDS011;10243;49.118;8.508;2022-08-19T11:04:17;7.70;;;7.05;;
20166;SDS011;10243;49.118;8.508;2022-08-19T11:07:20;12.90;;;8.75;;
20166;SDS011;10243;49.118;8.508;2022-08-19T11:10:24;11.27;;;9.27;;
20166;SDS011;10243;49.118;8.508;2022-08-19T11:13:26;9.45;;;8.70;;
20166;SDS011;10243;49.118;8.508;2022-08-19T11:16:28;8.15;;;7.45;;
20166;SDS011;10243;49.118;8.508;2022-08-19T11:19:32;13.63;;;12.20;;
20166;SDS011;10243;49.118;8.508;2022-08-19T11:22:35;21.77;;;11.43;;
20166;SDS011;10243;49.118;8.508;2022-08-19T11:25:38;8.75;;;7.95;;
20166;SDS011;10243;49.118;8.508;2022-08-19T11:28:40;9.00;;;7.53;;
20166;SDS011;10243;49.118;8.508;2022-08-19T11:31:43;8.25;;;7.32;;
20166;SDS011;10243;49.118;8.508;2022-08-19T11:34:46;10.70;;;8.13;;
20166;SDS011;10243;49.118;8.508;2022-08-19T11:37:49;9.40;;;7.78;;
20166;SDS011;10243;49.118;8.508;2022-08-19T11:40:55;7.20;;;6.57;;
20166;SDS011;10243;49.118;8.508;2022-08-19T11:43:58;7.45;;;6.85;;
20166;SDS011;10243;49.118;8.508;2022-08-19T11:47:00;7.82;;;6.72;;
20166;SDS011;10243;49.118;8.508;2022-08-19T11:50:02;8.40;;;7.57;;
20166;SDS011;10243;49.118;8.508;2022-08-19T11:53:06;8.48;;;7.70;;
20166;SDS011;10243;49.118;8.508;2022-08-19T11:56:10;10.70;;;7.72;;
20166;SDS011;10243;49.118;8.508;2022-08-19T11:59:12;8.80;;;8.02;;
20166;SDS011;10243;49.118;8.508;2022-08-19T12:02:14;8.95;;;8.10;;
20166;SDS011;10243;49.118;8.508;2022-08-19T12:05:16;10.10;;;8.60;;
20166;SDS011;10243;49.118;8.508;2022-08-19T12:08:20;14.48;;;9.18;;
20166;SDS011;10243;49.118;8.508;2022-08-19T12:11:22;9.60;;;8.80;;
20166;SDS011;10243;49.118;8.508;2022-08-19T12:14:24;12.73;;;8.88;;
20166;SDS011;10243;49.118;8.508;2022-08-19T12:17:28;9.10;;;8.40;;
20166;SDS011;10243;49.118;8.508;2022-08-19T12:20:31;10.25;;;9.45;;
20166;SDS011;10243;49.118;8.508;2022-08-19T12:23:37;10.20;;;9.23;;
20166;SDS011;10243;49.118;8.508;2022-08-19T12:26:39;9.50;;;8.65;;
20166;SDS011;10243;49.118;8.508;2022-08-19T12:29:42;9.30;;;8.60;;
20166;SDS011;10243;49.118;8.508;2022-08-19T12:32:44;11.15;;;7.97;;
20166;SDS011;10243;49.118;8.508;2022-08-19T12:35:46;9.60;;;8.77;;
20166;SDS011;10243;49.118;8.508;2022-08-19T12:38:49;8.90;;;8.18;;
20166;SDS011;10243;49.118;8.508;2022-08-19T12:41:52;9.30;;;8.50;;
20166;SDS011;10243;49.118;8.508;2022-08-19T12:44:54;8.77;;;8.18;;
20166;SDS011;10243;49.118;8.508;2022-08-19T12:47:56;10.27;;;9.20;;
20166;SDS011;10243;49.118;8.508;2022-08-19T12:50:58;9.10;;;8.35;;
20166;SDS011;10243;49.118;8.508;2022-08-19T12:54:02;9.35;;;8.48;;
20166;SDS011;10243;49.118;8.508;2022-08-19T12:57:05;9.13;;;8.23;;
20166;SDS011;10243;49.118;8.508;2022-08-19T13:00:08;9.20;;;8.35;;
20166;SDS011;10243;49.118;8.508;2022-08-19T13:03:12;11.75;;;8.93;;
20166;SDS011;10243;49.118;8.508;2022-08-19T13:06:14;9.70;;;8.80;;
20166;SDS011;10243;49.118;8.508;2022-08-19T13:09:17;9.77;;;8.95;;
20166;SDS011;10243;49.118;8.508;2022-08-19T13:12:19;10.35;;;8.55;;
20166;SDS011;10243;49.118;8.508;2022-08-19T13:15:23;9.38;;;8.65;;
20166;SDS011;10243;49.118;8.508;2022-08-19T13:18:25;10.50;;;9.07;;
20166;SDS011;10243;49.118;8.508;2022-08-19T13:21:27;8.88;;;8.27;;
20166;SDS011;10243;49.118;8.508;2022-08-19T13:24:31;11.75;;;9.30;;
20166;SDS011;10243;49.118;8.508;2022-08-19T13:27:33;10.15;;;9.25;;
20166;SDS011;10243;49.118;8.508;2022-08-19T13:30:35;9.00;;;8.20;;
20166;SDS011;10243;49.118;8.508;2022-08-19T13:33:54;12.57;;;8.70;;
20166;SDS011;10243;49.118;8.508;2022-08-19T13:36:57;9.07;;;8.18;;
20166;SDS011;10243;49.118;8.508;2022-08-19T13:40:00;9.55;;;8.60;;
20166;SDS011;10243;49.118;8.508;2022-08-19T13:43:03;7.80;;;7.20;;
20166;SDS011;10243;49.118;8.508;2022-08-19T13:46:08;6.53;;;6.03;;
20166;SDS011;10243;49.118;8.508;2022-08-19T13:49:14;6.97;;;5.97;;
20166;SDS011;10243;49.118;8.508;2022-08-19T13:52:16;5.63;;;5.22;;
20166;SDS011;10243;49.118;8.508;2022-08-19T13:55:20;7.75;;;5.93;;
20166;SDS011;10243;49.118;8.508;2022-08-19T13:58:22;6.88;;;6.20;;
20166;SDS011;10243;49.118;8.508;2022-08-19T14:01:24;7.70;;;6.35;;
20166;SDS011;10243;49.118;8.508;2022-08-19T14:04:27;6.70;;;6.10;;
20166;SDS011;10243;49.118;8.508;2022-08-19T14:07:28;7.05;;;6.43;;
20166;SDS011;10243;49.118;8.508;2022-08-19T14:10:32;9.15;;;6.07;;
20166;SDS011;10243;49.118;8.508;2022-08-19T14:13:35;6.63;;;5.93;;
20166;SDS011;10243;49.118;8.508;2022-08-19T14:16:37;5.03;;;4.55;;
20166;SDS011;10243;49.118;8.508;2022-08-19T14:19:39;6.05;;;5.47;;
20166;SDS011;10243;49.118;8.508;2022-08-19T14:22:41;5.65;;;5.15;;
20166;SDS011;10243;49.118;8.508;2022-08-19T14:25:45;6.20;;;5.70;;
20166;SDS011;10243;49.118;8.508;2022-08-19T14:28:48;11.52;;;5.00;;
20166;SDS011;10243;49.118;8.508;2022-08-19T14:31:52;11.65;;;4.22;;
20166;SDS011;10243;49.118;8.508;2022-08-19T14:34:54;5.75;;;5.30;;
20166;SDS011;10243;49.118;8.508;2022-08-19T14:37:56;5.40;;;5.10;;
20166;SDS011;10243;49.118;8.508;2022-08-19T14:41:13;6.85;;;6.20;;
20166;SDS011;10243;49.118;8.508;2022-08-19T14:44:17;6.25;;;5.18;;
20166;SDS011;10243;49.118;8.508;2022-08-19T14:47:20;5.57;;;5.07;;
20166;SDS011;10243;49.118;8.508;2022-08-19T14:50:25;4.60;;;4.28;;
20166;SDS011;10243;49.118;8.508;2022-08-19T14:53:28;4.57;;;4.18;;
20166;SDS011;10243;49.118;8.508;2022-08-19T14:56:32;5.32;;;4.85;;
20166;SDS011;10243;49.118;8.508;2022-08-19T14:59:35;7.75;;;4.82;;
20166;SDS011;10243;49.118;8.508;2022-08-19T15:02:39;4.40;;;4.00;;
20166;SDS011;10243;49.118;8.508;2022-08-19T15:05:45;7.78;;;4.53;;
20166;SDS011;10243;49.118;8.508;2022-08-19T15:08:47;5.15;;;4.13;;
20166;SDS011;10243;49.118;8.508;2022-08-19T15:11:53;4.28;;;4.07;;
20166;SDS011;10243;49.118;8.508;2022-08-19T15:14:55;6.80;;;4.22;;
20166;SDS011;10243;49.118;8.508;2022-08-19T15:17:57;4.63;;;4.32;;
20166;SDS011;10243;49.118;8.508;2022-08-19T15:21:02;5.80;;;3.88;;
20166;SDS011;10243;49.118;8.508;2022-08-19T15:24:05;4.50;;;4.20;;
20166;SDS011;10243;49.118;8.508;2022-08-19T15:27:08;4.63;;;4.18;;
20166;SDS011;10243;49.118;8.508;2022-08-19T15:30:11;5.70;;;4.07;;
20166;SDS011;10243;49.118;8.508;2022-08-19T15:33:13;4.47;;;4.18;;
20166;SDS011;10243;49.118;8.508;2022-08-19T15:36:15;4.47;;;4.13;;
20166;SDS011;10243;49.118;8.508;2022-08-19T15:39:17;4.80;;;4.50;;
20166;SDS011;10243;49.118;8.508;2022-08-19T15:42:21;9.23;;;5.18;;
20166;SDS011;10243;49.118;8.508;2022-08-19T15:45:23;6.75;;;4.38;;
20166;SDS011;10243;49.118;8.508;2022-08-19T15:48:31;6.15;;;4.25;;
20166;SDS011;10243;49.118;8.508;2022-08-19T15:51:33;5.95;;;4.43;;
20166;SDS011;10243;49.118;8.508;2022-08-19T15:54:38;4.65;;;4.22;;
20166;SDS011;10243;49.118;8.508;2022-08-19T15:57:41;5.65;;;4.30;;
20166;SDS011;10243;49.118;8.508;2022-08-19T16:01:12;7.05;;;4.22;;
20166;SDS011;10243;49.118;8.508;2022-08-19T16:04:31;5.15;;;4.10;;
20166;SDS011;10243;49.118;8.508;2022-08-19T16:07:51;4.63;;;4.22;;
20166;SDS011;10243;49.118;8.508;2022-08-19T16:10:53;4.43;;;4.03;;
20166;SDS011;10243;49.118;8.508;2022-08-19T16:13:57;5.68;;;4.32;;
20166;SDS011;10243;49.118;8.508;2022-08-19T16:17:01;9.85;;;4.43;;
20166;SDS011;10243;49.118;8.508;2022-08-19T16:20:04;4.45;;;4.07;;
20166;SDS011;10243;49.118;8.508;2022-08-19T16:23:07;4.40;;;4.10;;
20166;SDS011;10243;49.118;8.508;2022-08-19T16:26:09;5.97;;;4.65;;
20166;SDS011;10243;49.118;8.508;2022-08-19T16:29:13;4.50;;;4.20;;
20166;SDS011;10243;49.118;8.508;2022-08-19T16:32:16;4.82;;;4.43;;
20166;SDS011;10243;49.118;8.508;2022-08-19T16:35:18;4.95;;;4.57;;
20166;SDS011;10243;49.118;8.508;2022-08-19T16:38:20;5.72;;;4.85;;
20166;SDS011;10243;49.118;8.508;2022-08-19T16:41:23;4.93;;;4.53;;
20166;SDS011;10243;49.118;8.508;2022-08-19T16:44:28;4.95;;;4.55;;
20166;SDS011;10243;49.118;8.508;2022-08-19T16:47:30;5.78;;;4.55;;
20166;SDS011;10243;49.118;8.508;2022-08-19T16:50:32;4.53;;;4.22;;
20166;SDS011;10243;49.118;8.508;2022-08-19T16:53:34;4.57;;;4.18;;
20166;SDS011;10243;49.118;8.508;2022-08-19T16:56:36;11.00;;;4.72;;
20166;SDS011;10243;49.118;8.508;2022-08-19T16:59:40;6.55;;;4.53;;
20166;SDS011;10243;49.118;8.508;2022-08-19T17:02:43;4.95;;;4.65;;
20166;SDS011;10243;49.118;8.508;2022-08-19T17:05:46;4.93;;;4.43;;
20166;SDS011;10243;49.118;8.508;2022-08-19T17:08:49;5.05;;;4.55;;
20166;SDS011;10243;49.118;8.508;2022-08-19T17:11:53;10.60;;;4.85;;
20166;SDS011;10243;49.118;8.508;2022-08-19T17:14:56;5.57;;;4.38;;
20166;SDS011;10243;49.118;8.508;2022-08-19T17:17:58;5.50;;;5.03;;
20166;SDS011;10243;49.118;8.508;2022-08-19T17:21:01;6.35;;;5.05;;
20166;SDS011;10243;49.118;8.508;2022-08-19T17:24:03;4.97;;;4.50;;
20166;SDS011;10243;49.118;8.508;2022-08-19T17:27:07;11.75;;;4.90;;
20166;SDS011;10243;49.118;8.508;2022-08-19T17:30:11;5.00;;;4.70;;
20166;SDS011;10243;49.118;8.508;2022-08-19T17:33:13;5.82;;;4.60;;
20166;SDS011;10243;49.118;8.508;2022-08-19T17:36:15;9.18;;;4.88;;
20166;SDS011;10243;49.118;8.508;2022-08-19T17:39:18;5.15;;;4.85;;
20166;SDS011;10243;49.118;8.508;2022-08-19T17:42:19;11.80;;;4.07;;
20166;SDS011;10243;49.118;8.508;2022-08-19T17:45:23;7.25;;;4.70;;
20166;SDS011;10243;49.118;8.508;2022-08-19T17:48:25;4.90;;;4.45;;
20166;SDS011;10243;49.118;8.508;2022-08-19T17:51:36;12.95;;;4.55;;
20166;SDS011;10243;49.118;8.508;2022-08-19T17:54:40;5.15;;;4.65;;
20166;SDS011;10243;49.118;8.508;2022-08-19T17:57:42;4.80;;;4.40;;
20166;SDS011;10243;49.118;8.508;2022-08-19T18:00:45;5.57;;;4.88;;
20166;SDS011;10243;49.118;8.508;2022-08-19T18:03:48;5.13;;;4.63;;
20166;SDS011;10243;49.118;8.508;2022-08-19T18:06:50;9.27;;;5.25;;